Pagrindinis puslapis
METAR-TAF:

METAR-TAF

Oro uostai :

Wattisham, Anglija

platuma: 52-07N, ilguma: 000-58E, Aukštis: 87 m

Dabartinis oras

Ataskaita buvo paskelbta 1 valandą ir 18 minutes, ne 09:50 UTC
Vėjas 10 kt iš Šiaurės Rytų
Temperatūra 7°C
Drėgmė 70%
Slėgis 1033 hPa
Matomumas 10 km arba daugiau

METAR: EGUW 310950Z AUTO 04010KT 9999 FEW023/// SCT045/// 07/02 Q1033

Laikas: 12:08 (11:08 UTC)

Prognozė

Ataskaita buvo paskelbta 15 valandos ir 40 minutes, ne 19:28 UTC
Prognozė galioja nuo 30 metu 21 UTC su 31 metu 01 UTC
Vėjas 10 kt iš Šiaurės/Šiaurės Rytų
Matomumas 10 km arba daugiau
Išsisklaidę debesys ne aukštis 2500 ft

TAF: EGUW 301928Z 3021/3101 02010KT 9999 SCT025

Orai ataskaitas ir orų prognozės (METAR, TAF).

turimą stotys yra geltonos ir raudonos taškus žemėlapyje.

Perkelti pele per norėdami pamatyti stoties vardą.

Tada spustelėkite, norėdami matyti oro stebėjimo ir prognozės.

Norėdami pakeisti žemėlapį: spustelėkite ant žalios mygtukų su juodo kryžiaus žemyn,; žalią mygtuką su brūkšneliu, jei norite nutolinti; arba žalių rodyklių gretimoms žemėlapius.


METAR-TAF: